sensor_id;sensor_type;location;lat;lon;timestamp;temperature;humidity
26505;DHT22;19493;48.042;7.584;2024-03-02T00:01:58;2.80;99.90
26505;DHT22;19493;48.042;7.584;2024-03-02T00:04:24;2.80;99.90
26505;DHT22;19493;48.042;7.584;2024-03-02T00:06:52;2.80;99.90
26505;DHT22;19493;48.042;7.584;2024-03-02T00:09:20;2.80;99.90
26505;DHT22;19493;48.042;7.584;2024-03-02T00:11:45;2.80;99.90
26505;DHT22;19493;48.042;7.584;2024-03-02T00:14:12;2.80;99.90
26505;DHT22;19493;48.042;7.584;2024-03-02T00:16:37;2.80;99.90
26505;DHT22;19493;48.042;7.584;2024-03-02T00:19:05;2.90;99.90
26505;DHT22;19493;48.042;7.584;2024-03-02T00:21:31;2.80;99.90
26505;DHT22;19493;48.042;7.584;2024-03-02T00:23:57;2.80;99.90
26505;DHT22;19493;48.042;7.584;2024-03-02T00:26:23;2.70;99.90
26505;DHT22;19493;48.042;7.584;2024-03-02T00:28:49;2.70;99.90
26505;DHT22;19493;48.042;7.584;2024-03-02T00:31:20;2.70;99.90
26505;DHT22;19493;48.042;7.584;2024-03-02T00:33:47;2.70;99.90
26505;DHT22;19493;48.042;7.584;2024-03-02T00:36:21;2.60;99.90
26505;DHT22;19493;48.042;7.584;2024-03-02T00:38:49;2.60;99.90
26505;DHT22;19493;48.042;7.584;2024-03-02T00:44:01;2.60;99.90
26505;DHT22;19493;48.042;7.584;2024-03-02T00:46:37;2.50;99.90
26505;DHT22;19493;48.042;7.584;2024-03-02T00:49:04;2.50;99.90
26505;DHT22;19493;48.042;7.584;2024-03-02T00:51:32;2.50;99.90
26505;DHT22;19493;48.042;7.584;2024-03-02T00:54:00;2.50;99.90
26505;DHT22;19493;48.042;7.584;2024-03-02T00:56:26;2.50;99.90
26505;DHT22;19493;48.042;7.584;2024-03-02T00:58:53;2.50;99.90
26505;DHT22;19493;48.042;7.584;2024-03-02T01:01:19;2.40;99.90
26505;DHT22;19493;48.042;7.584;2024-03-02T01:03:45;2.30;99.90
26505;DHT22;19493;48.042;7.584;2024-03-02T01:06:11;2.30;99.90
26505;DHT22;19493;48.042;7.584;2024-03-02T01:08:37;2.20;99.90
26505;DHT22;19493;48.042;7.584;2024-03-02T01:11:03;2.20;99.90
26505;DHT22;19493;48.042;7.584;2024-03-02T01:13:30;2.10;99.90
26505;DHT22;19493;48.042;7.584;2024-03-02T01:15:56;2.00;99.90
26505;DHT22;19493;48.042;7.584;2024-03-02T01:18:22;2.00;99.90
26505;DHT22;19493;48.042;7.584;2024-03-02T01:20:47;1.90;99.90
26505;DHT22;19493;48.042;7.584;2024-03-02T01:23:13;1.90;99.90
26505;DHT22;19493;48.042;7.584;2024-03-02T01:25:39;1.90;99.90
26505;DHT22;19493;48.042;7.584;2024-03-02T01:28:05;1.90;99.90
26505;DHT22;19493;48.042;7.584;2024-03-02T01:30:31;1.80;99.90
26505;DHT22;19493;48.042;7.584;2024-03-02T01:32:57;1.90;99.90
26505;DHT22;19493;48.042;7.584;2024-03-02T01:35:24;1.90;99.90
26505;DHT22;19493;48.042;7.584;2024-03-02T01:37:50;1.90;99.90
26505;DHT22;19493;48.042;7.584;2024-03-02T01:40:16;2.00;99.90
26505;DHT22;19493;48.042;7.584;2024-03-02T01:42:41;2.00;99.90
26505;DHT22;19493;48.042;7.584;2024-03-02T01:45:08;1.90;99.90
26505;DHT22;19493;48.042;7.584;2024-03-02T01:47:34;1.90;99.90
26505;DHT22;19493;48.042;7.584;2024-03-02T01:50:01;1.90;99.90
26505;DHT22;19493;48.042;7.584;2024-03-02T01:52:27;1.90;99.90
26505;DHT22;19493;48.042;7.584;2024-03-02T01:54:53;2.00;99.90
26505;DHT22;19493;48.042;7.584;2024-03-02T01:57:19;2.00;99.90
26505;DHT22;19493;48.042;7.584;2024-03-02T01:59:45;2.10;99.90
26505;DHT22;19493;48.042;7.584;2024-03-02T02:02:13;2.00;99.90
26505;DHT22;19493;48.042;7.584;2024-03-02T02:04:39;2.10;99.90
26505;DHT22;19493;48.042;7.584;2024-03-02T02:07:04;2.00;99.90
26505;DHT22;19493;48.042;7.584;2024-03-02T02:09:30;2.00;99.90
26505;DHT22;19493;48.042;7.584;2024-03-02T02:11:55;1.90;99.90
26505;DHT22;19493;48.042;7.584;2024-03-02T02:14:21;1.90;99.90
26505;DHT22;19493;48.042;7.584;2024-03-02T02:16:47;1.90;99.90
26505;DHT22;19493;48.042;7.584;2024-03-02T02:19:12;1.70;99.90
26505;DHT22;19493;48.042;7.584;2024-03-02T02:21:38;1.60;99.90
26505;DHT22;19493;48.042;7.584;2024-03-02T02:24:07;1.60;99.90
26505;DHT22;19493;48.042;7.584;2024-03-02T02:26:32;1.50;99.90
26505;DHT22;19493;48.042;7.584;2024-03-02T02:28:58;1.50;99.90
26505;DHT22;19493;48.042;7.584;2024-03-02T02:31:23;1.50;99.90
26505;DHT22;19493;48.042;7.584;2024-03-02T02:33:49;1.50;99.90
26505;DHT22;19493;48.042;7.584;2024-03-02T02:36:14;1.60;99.90
26505;DHT22;19493;48.042;7.584;2024-03-02T02:38:45;1.70;99.90
26505;DHT22;19493;48.042;7.584;2024-03-02T02:41:12;1.60;99.90
26505;DHT22;19493;48.042;7.584;2024-03-02T02:43:38;1.70;99.90
26505;DHT22;19493;48.042;7.584;2024-03-02T02:46:05;1.70;99.90
26505;DHT22;19493;48.042;7.584;2024-03-02T02:48:30;1.80;99.90
26505;DHT22;19493;48.042;7.584;2024-03-02T02:50:56;1.80;99.90
26505;DHT22;19493;48.042;7.584;2024-03-02T02:53:22;1.80;99.90
26505;DHT22;19493;48.042;7.584;2024-03-02T02:55:47;1.80;99.90
26505;DHT22;19493;48.042;7.584;2024-03-02T02:58:13;1.80;99.90
26505;DHT22;19493;48.042;7.584;2024-03-02T03:00:40;1.70;99.90
26505;DHT22;19493;48.042;7.584;2024-03-02T03:03:06;1.70;99.90
26505;DHT22;19493;48.042;7.584;2024-03-02T03:05:31;1.70;99.90
26505;DHT22;19493;48.042;7.584;2024-03-02T03:07:57;1.70;99.90
26505;DHT22;19493;48.042;7.584;2024-03-02T03:10:22;1.70;99.90
26505;DHT22;19493;48.042;7.584;2024-03-02T03:12:51;1.60;99.90
26505;DHT22;19493;48.042;7.584;2024-03-02T03:15:17;1.70;99.90
26505;DHT22;19493;48.042;7.584;2024-03-02T03:17:42;1.80;99.90
26505;DHT22;19493;48.042;7.584;2024-03-02T03:20:08;1.80;99.90
26505;DHT22;19493;48.042;7.584;2024-03-02T03:22:40;1.80;99.90
26505;DHT22;19493;48.042;7.584;2024-03-02T03:25:06;1.70;99.90
26505;DHT22;19493;48.042;7.584;2024-03-02T03:27:33;1.70;99.90
26505;DHT22;19493;48.042;7.584;2024-03-02T03:29:59;1.80;99.90
26505;DHT22;19493;48.042;7.584;2024-03-02T03:32:24;1.80;99.90
26505;DHT22;19493;48.042;7.584;2024-03-02T03:34:50;1.80;99.90
26505;DHT22;19493;48.042;7.584;2024-03-02T03:37:16;1.80;99.90
26505;DHT22;19493;48.042;7.584;2024-03-02T03:39:42;1.80;99.90
26505;DHT22;19493;48.042;7.584;2024-03-02T03:42:07;1.90;99.90
26505;DHT22;19493;48.042;7.584;2024-03-02T03:44:33;1.90;99.90
26505;DHT22;19493;48.042;7.584;2024-03-02T03:46:59;1.90;99.90
26505;DHT22;19493;48.042;7.584;2024-03-02T03:49:26;2.00;99.90
26505;DHT22;19493;48.042;7.584;2024-03-02T03:51:51;1.90;99.90
26505;DHT22;19493;48.042;7.584;2024-03-02T03:54:17;2.00;99.90
26505;DHT22;19493;48.042;7.584;2024-03-02T03:56:42;2.00;99.90
26505;DHT22;19493;48.042;7.584;2024-03-02T03:59:08;1.90;99.90
26505;DHT22;19493;48.042;7.584;2024-03-02T04:01:34;1.90;99.90
26505;DHT22;19493;48.042;7.584;2024-03-02T04:03:59;1.90;99.90
26505;DHT22;19493;48.042;7.584;2024-03-02T04:06:27;1.90;99.90
26505;DHT22;19493;48.042;7.584;2024-03-02T04:08:53;1.80;99.90
26505;DHT22;19493;48.042;7.584;2024-03-02T04:11:18;1.60;99.90
26505;DHT22;19493;48.042;7.584;2024-03-02T04:13:44;1.60;99.90
26505;DHT22;19493;48.042;7.584;2024-03-02T04:16:09;1.60;99.90
26505;DHT22;19493;48.042;7.584;2024-03-02T04:18:35;1.50;99.90
26505;DHT22;19493;48.042;7.584;2024-03-02T04:21:00;1.40;99.90
26505;DHT22;19493;48.042;7.584;2024-03-02T04:23:26;1.40;99.90
26505;DHT22;19493;48.042;7.584;2024-03-02T04:25:52;1.30;99.90
26505;DHT22;19493;48.042;7.584;2024-03-02T04:28:17;1.30;99.90
26505;DHT22;19493;48.042;7.584;2024-03-02T04:30:43;1.30;99.90
26505;DHT22;19493;48.042;7.584;2024-03-02T04:33:09;1.30;99.90
26505;DHT22;19493;48.042;7.584;2024-03-02T04:35:36;1.40;99.90
26505;DHT22;19493;48.042;7.584;2024-03-02T04:38:01;1.40;99.90
26505;DHT22;19493;48.042;7.584;2024-03-02T04:40:27;1.50;99.90
26505;DHT22;19493;48.042;7.584;2024-03-02T04:42:52;1.60;99.90
26505;DHT22;19493;48.042;7.584;2024-03-02T04:45:18;1.60;99.90
26505;DHT22;19493;48.042;7.584;2024-03-02T04:47:44;1.70;99.90
26505;DHT22;19493;48.042;7.584;2024-03-02T04:50:09;1.70;99.90
26505;DHT22;19493;48.042;7.584;2024-03-02T04:52:36;1.70;99.90
26505;DHT22;19493;48.042;7.584;2024-03-02T04:55:02;1.60;99.90
26505;DHT22;19493;48.042;7.584;2024-03-02T04:57:46;1.50;99.90
26505;DHT22;19493;48.042;7.584;2024-03-02T05:00:13;1.50;99.90
26505;DHT22;19493;48.042;7.584;2024-03-02T05:02:39;1.50;99.90
26505;DHT22;19493;48.042;7.584;2024-03-02T05:05:04;1.50;99.90
26505;DHT22;19493;48.042;7.584;2024-03-02T05:07:30;1.60;99.90
26505;DHT22;19493;48.042;7.584;2024-03-02T05:09:55;1.70;99.90
26505;DHT22;19493;48.042;7.584;2024-03-02T05:12:21;1.80;99.90
26505;DHT22;19493;48.042;7.584;2024-03-02T05:15:05;1.90;99.90
26505;DHT22;19493;48.042;7.584;2024-03-02T05:17:32;1.90;99.90
26505;DHT22;19493;48.042;7.584;2024-03-02T05:19:58;1.90;99.90
26505;DHT22;19493;48.042;7.584;2024-03-02T05:22:24;2.00;99.90
26505;DHT22;19493;48.042;7.584;2024-03-02T05:24:49;2.10;99.90
26505;DHT22;19493;48.042;7.584;2024-03-02T05:27:15;2.20;99.90
26505;DHT22;19493;48.042;7.584;2024-03-02T05:29:40;2.20;99.90
26505;DHT22;19493;48.042;7.584;2024-03-02T05:32:06;2.30;99.90
26505;DHT22;19493;48.042;7.584;2024-03-02T05:34:32;2.30;99.90
26505;DHT22;19493;48.042;7.584;2024-03-02T05:37:00;2.40;99.90
26505;DHT22;19493;48.042;7.584;2024-03-02T05:39:25;2.40;99.90
26505;DHT22;19493;48.042;7.584;2024-03-02T05:41:51;2.50;99.90
26505;DHT22;19493;48.042;7.584;2024-03-02T05:44:17;2.60;99.90
26505;DHT22;19493;48.042;7.584;2024-03-02T05:46:44;2.60;99.90
26505;DHT22;19493;48.042;7.584;2024-03-02T05:49:09;2.70;99.90
26505;DHT22;19493;48.042;7.584;2024-03-02T05:51:35;2.70;99.90
26505;DHT22;19493;48.042;7.584;2024-03-02T05:54:01;2.70;99.90
26505;DHT22;19493;48.042;7.584;2024-03-02T05:56:27;2.70;99.90
26505;DHT22;19493;48.042;7.584;2024-03-02T05:58:52;2.70;99.90
26505;DHT22;19493;48.042;7.584;2024-03-02T06:01:47;2.60;99.90
26505;DHT22;19493;48.042;7.584;2024-03-02T06:04:13;2.60;99.90
26505;DHT22;19493;48.042;7.584;2024-03-02T06:06:40;2.50;99.90
26505;DHT22;19493;48.042;7.584;2024-03-02T06:09:06;2.40;99.90
26505;DHT22;19493;48.042;7.584;2024-03-02T06:11:36;2.40;99.90
26505;DHT22;19493;48.042;7.584;2024-03-02T06:14:03;2.40;99.90
26505;DHT22;19493;48.042;7.584;2024-03-02T06:16:29;2.40;99.90
26505;DHT22;19493;48.042;7.584;2024-03-02T06:18:55;2.50;99.90
26505;DHT22;19493;48.042;7.584;2024-03-02T06:21:32;2.50;99.90
26505;DHT22;19493;48.042;7.584;2024-03-02T06:23:57;2.50;99.90
26505;DHT22;19493;48.042;7.584;2024-03-02T06:26:23;2.60;99.90
26505;DHT22;19493;48.042;7.584;2024-03-02T06:28:49;2.60;99.90
26505;DHT22;19493;48.042;7.584;2024-03-02T06:31:14;2.70;99.90
26505;DHT22;19493;48.042;7.584;2024-03-02T06:33:40;2.70;99.90
26505;DHT22;19493;48.042;7.584;2024-03-02T06:36:07;2.70;99.90
26505;DHT22;19493;48.042;7.584;2024-03-02T06:38:37;2.80;99.90
26505;DHT22;19493;48.042;7.584;2024-03-02T06:41:02;2.80;99.90
26505;DHT22;19493;48.042;7.584;2024-03-02T06:43:28;2.80;99.90
26505;DHT22;19493;48.042;7.584;2024-03-02T06:45:53;2.90;99.90
26505;DHT22;19493;48.042;7.584;2024-03-02T06:48:19;2.90;99.90
26505;DHT22;19493;48.042;7.584;2024-03-02T06:50:46;2.90;99.90
26505;DHT22;19493;48.042;7.584;2024-03-02T06:53:13;3.10;99.90
26505;DHT22;19493;48.042;7.584;2024-03-02T06:55:39;3.20;99.90
26505;DHT22;19493;48.042;7.584;2024-03-02T06:58:04;3.30;99.90
26505;DHT22;19493;48.042;7.584;2024-03-02T07:00:30;3.40;99.90
26505;DHT22;19493;48.042;7.584;2024-03-02T07:02:55;3.50;99.90
26505;DHT22;19493;48.042;7.584;2024-03-02T07:05:21;3.50;99.90
26505;DHT22;19493;48.042;7.584;2024-03-02T07:07:47;3.60;99.90
26505;DHT22;19493;48.042;7.584;2024-03-02T07:10:12;3.60;99.90
26505;DHT22;19493;48.042;7.584;2024-03-02T07:12:38;3.70;99.90
26505;DHT22;19493;48.042;7.584;2024-03-02T07:15:04;3.80;99.90
26505;DHT22;19493;48.042;7.584;2024-03-02T07:17:44;3.90;99.90
26505;DHT22;19493;48.042;7.584;2024-03-02T07:20:09;4.00;99.90
26505;DHT22;19493;48.042;7.584;2024-03-02T07:22:37;4.00;99.90
26505;DHT22;19493;48.042;7.584;2024-03-02T07:25:03;4.10;99.90
26505;DHT22;19493;48.042;7.584;2024-03-02T07:27:30;4.20;99.90
26505;DHT22;19493;48.042;7.584;2024-03-02T07:29:56;4.30;99.90
26505;DHT22;19493;48.042;7.584;2024-03-02T07:32:22;4.40;99.90
26505;DHT22;19493;48.042;7.584;2024-03-02T07:34:47;4.50;99.90
26505;DHT22;19493;48.042;7.584;2024-03-02T07:37:13;4.60;99.90
26505;DHT22;19493;48.042;7.584;2024-03-02T07:39:39;4.80;99.90
26505;DHT22;19493;48.042;7.584;2024-03-02T07:42:04;4.90;99.90
26505;DHT22;19493;48.042;7.584;2024-03-02T07:44:31;5.10;99.90
26505;DHT22;19493;48.042;7.584;2024-03-02T07:46:57;5.10;99.90
26505;DHT22;19493;48.042;7.584;2024-03-02T07:49:22;5.30;99.90
26505;DHT22;19493;48.042;7.584;2024-03-02T07:51:48;5.50;99.90
26505;DHT22;19493;48.042;7.584;2024-03-02T07:54:13;5.70;99.90
26505;DHT22;19493;48.042;7.584;2024-03-02T07:56:39;5.90;99.90
26505;DHT22;19493;48.042;7.584;2024-03-02T07:59:05;6.10;99.90
26505;DHT22;19493;48.042;7.584;2024-03-02T08:01:31;6.30;99.90
26505;DHT22;19493;48.042;7.584;2024-03-02T08:04:01;6.60;99.90
26505;DHT22;19493;48.042;7.584;2024-03-02T08:06:28;6.80;99.90
26505;DHT22;19493;48.042;7.584;2024-03-02T08:08:57;7.00;99.90
26505;DHT22;19493;48.042;7.584;2024-03-02T08:11:24;7.10;99.90
26505;DHT22;19493;48.042;7.584;2024-03-02T08:13:49;7.30;99.90
26505;DHT22;19493;48.042;7.584;2024-03-02T08:16:16;7.50;99.90
26505;DHT22;19493;48.042;7.584;2024-03-02T08:18:45;7.80;99.90
26505;DHT22;19493;48.042;7.584;2024-03-02T08:21:11;8.00;99.90
26505;DHT22;19493;48.042;7.584;2024-03-02T08:23:37;8.30;99.90
26505;DHT22;19493;48.042;7.584;2024-03-02T08:26:03;8.40;99.90
26505;DHT22;19493;48.042;7.584;2024-03-02T08:28:29;8.60;99.90
26505;DHT22;19493;48.042;7.584;2024-03-02T08:30:55;8.70;99.90
26505;DHT22;19493;48.042;7.584;2024-03-02T08:33:21;8.90;99.90
26505;DHT22;19493;48.042;7.584;2024-03-02T08:35:46;9.20;99.90
26505;DHT22;19493;48.042;7.584;2024-03-02T08:38:12;9.30;99.90
26505;DHT22;19493;48.042;7.584;2024-03-02T08:40:38;9.30;99.90
26505;DHT22;19493;48.042;7.584;2024-03-02T08:43:04;9.50;99.90
26505;DHT22;19493;48.042;7.584;2024-03-02T08:45:29;9.70;99.90
26505;DHT22;19493;48.042;7.584;2024-03-02T08:47:55;9.80;99.90
26505;DHT22;19493;48.042;7.584;2024-03-02T08:50:21;10.20;99.90
26505;DHT22;19493;48.042;7.584;2024-03-02T08:52:46;11.30;99.90
26505;DHT22;19493;48.042;7.584;2024-03-02T08:55:12;12.70;99.90
26505;DHT22;19493;48.042;7.584;2024-03-02T08:57:37;14.30;99.90
26505;DHT22;19493;48.042;7.584;2024-03-02T09:00:04;15.90;99.90
26505;DHT22;19493;48.042;7.584;2024-03-02T09:02:31;17.20;93.90
26505;DHT22;19493;48.042;7.584;2024-03-02T09:04:56;17.80;85.50
26505;DHT22;19493;48.042;7.584;2024-03-02T09:07:22;18.00;81.30
26505;DHT22;19493;48.042;7.584;2024-03-02T09:09:48;18.70;79.30
26505;DHT22;19493;48.042;7.584;2024-03-02T09:12:13;19.40;71.80
26505;DHT22;19493;48.042;7.584;2024-03-02T09:14:40;20.00;67.00
26505;DHT22;19493;48.042;7.584;2024-03-02T09:17:06;19.80;63.10
26505;DHT22;19493;48.042;7.584;2024-03-02T09:19:31;19.90;64.10
26505;DHT22;19493;48.042;7.584;2024-03-02T09:21:57;20.40;61.60
26505;DHT22;19493;48.042;7.584;2024-03-02T09:24:24;21.10;59.60
26505;DHT22;19493;48.042;7.584;2024-03-02T09:26:50;21.60;57.40
26505;DHT22;19493;48.042;7.584;2024-03-02T09:29:15;21.20;57.20
26505;DHT22;19493;48.042;7.584;2024-03-02T09:31:42;21.20;57.10
26505;DHT22;19493;48.042;7.584;2024-03-02T09:34:08;21.20;55.10
26505;DHT22;19493;48.042;7.584;2024-03-02T09:36:33;21.10;54.50
26505;DHT22;19493;48.042;7.584;2024-03-02T09:38:59;20.80;54.40
26505;DHT22;19493;48.042;7.584;2024-03-02T09:41:25;21.10;54.50
26505;DHT22;19493;48.042;7.584;2024-03-02T09:43:50;21.90;53.80
26505;DHT22;19493;48.042;7.584;2024-03-02T09:46:16;22.90;53.90
26505;DHT22;19493;48.042;7.584;2024-03-02T09:48:44;23.80;50.30
26505;DHT22;19493;48.042;7.584;2024-03-02T09:51:10;24.60;49.90
26505;DHT22;19493;48.042;7.584;2024-03-02T09:53:36;25.20;46.90
26505;DHT22;19493;48.042;7.584;2024-03-02T09:56:02;25.40;46.00
26505;DHT22;19493;48.042;7.584;2024-03-02T09:58:28;25.70;45.40
26505;DHT22;19493;48.042;7.584;2024-03-02T10:00:54;26.00;43.20
26505;DHT22;19493;48.042;7.584;2024-03-02T10:03:19;25.80;43.00
26505;DHT22;19493;48.042;7.584;2024-03-02T10:05:46;26.30;43.80
26505;DHT22;19493;48.042;7.584;2024-03-02T10:08:12;26.20;43.00
26505;DHT22;19493;48.042;7.584;2024-03-02T10:10:39;26.50;43.80
26505;DHT22;19493;48.042;7.584;2024-03-02T10:13:09;26.90;41.30
26505;DHT22;19493;48.042;7.584;2024-03-02T10:15:36;27.20;40.30
26505;DHT22;19493;48.042;7.584;2024-03-02T10:18:09;27.60;40.10
26505;DHT22;19493;48.042;7.584;2024-03-02T10:20:35;27.70;40.70
26505;DHT22;19493;48.042;7.584;2024-03-02T10:23:11;27.80;39.20
26505;DHT22;19493;48.042;7.584;2024-03-02T10:25:37;28.00;39.60
26505;DHT22;19493;48.042;7.584;2024-03-02T10:28:03;27.90;40.00
26505;DHT22;19493;48.042;7.584;2024-03-02T10:30:31;27.40;40.10
26505;DHT22;19493;48.042;7.584;2024-03-02T10:32:57;27.70;39.00
26505;DHT22;19493;48.042;7.584;2024-03-02T10:35:23;27.60;39.50
26505;DHT22;19493;48.042;7.584;2024-03-02T10:37:52;28.10;38.20
26505;DHT22;19493;48.042;7.584;2024-03-02T10:40:18;28.60;37.90
26505;DHT22;19493;48.042;7.584;2024-03-02T10:42:44;29.50;38.00
26505;DHT22;19493;48.042;7.584;2024-03-02T10:45:10;29.40;36.90
26505;DHT22;19493;48.042;7.584;2024-03-02T10:47:38;29.40;36.30
26505;DHT22;19493;48.042;7.584;2024-03-02T10:50:07;29.60;37.00
26505;DHT22;19493;48.042;7.584;2024-03-02T10:52:37;29.30;34.50
26505;DHT22;19493;48.042;7.584;2024-03-02T10:55:08;29.00;35.60
26505;DHT22;19493;48.042;7.584;2024-03-02T10:57:51;28.60;36.60
26505;DHT22;19493;48.042;7.584;2024-03-02T11:00:18;27.60;35.60
26505;DHT22;19493;48.042;7.584;2024-03-02T11:02:57;27.20;35.80
26505;DHT22;19493;48.042;7.584;2024-03-02T11:05:27;26.60;36.60
26505;DHT22;19493;48.042;7.584;2024-03-02T11:07:59;26.30;36.90
26505;DHT22;19493;48.042;7.584;2024-03-02T11:10:27;26.20;37.70
26505;DHT22;19493;48.042;7.584;2024-03-02T11:13:02;26.30;36.60
26505;DHT22;19493;48.042;7.584;2024-03-02T11:15:30;26.60;37.20
26505;DHT22;19493;48.042;7.584;2024-03-02T11:17:57;27.10;36.20
26505;DHT22;19493;48.042;7.584;2024-03-02T11:20:23;27.60;35.90
26505;DHT22;19493;48.042;7.584;2024-03-02T11:22:50;28.80;35.20
26505;DHT22;19493;48.042;7.584;2024-03-02T11:25:26;29.30;33.20
26505;DHT22;19493;48.042;7.584;2024-03-02T11:33:07;27.10;34.60
26505;DHT22;19493;48.042;7.584;2024-03-02T11:35:37;25.30;36.10
26505;DHT22;19493;48.042;7.584;2024-03-02T11:38:03;24.60;38.50
26505;DHT22;19493;48.042;7.584;2024-03-02T11:40:30;25.80;37.60
26505;DHT22;19493;48.042;7.584;2024-03-02T11:42:56;25.30;36.70
26505;DHT22;19493;48.042;7.584;2024-03-02T11:45:23;24.70;38.10
26505;DHT22;19493;48.042;7.584;2024-03-02T11:47:54;26.20;37.50
26505;DHT22;19493;48.042;7.584;2024-03-02T11:50:43;27.70;35.80
26505;DHT22;19493;48.042;7.584;2024-03-02T11:53:11;27.70;34.90
26505;DHT22;19493;48.042;7.584;2024-03-02T11:55:39;29.10;34.30
26505;DHT22;19493;48.042;7.584;2024-03-02T11:58:06;29.30;34.30
26505;DHT22;19493;48.042;7.584;2024-03-02T12:00:32;28.50;32.70
26505;DHT22;19493;48.042;7.584;2024-03-02T12:05:28;29.60;30.70
26505;DHT22;19493;48.042;7.584;2024-03-02T12:08:04;29.60;31.40
26505;DHT22;19493;48.042;7.584;2024-03-02T12:10:31;29.20;31.40
26505;DHT22;19493;48.042;7.584;2024-03-02T12:15:31;28.50;32.50
26505;DHT22;19493;48.042;7.584;2024-03-02T12:17:58;27.20;33.30
26505;DHT22;19493;48.042;7.584;2024-03-02T12:20:25;25.60;35.00
26505;DHT22;19493;48.042;7.584;2024-03-02T12:22:55;24.00;37.10
26505;DHT22;19493;48.042;7.584;2024-03-02T12:25:21;22.90;39.50
26505;DHT22;19493;48.042;7.584;2024-03-02T12:27:49;22.50;40.10
26505;DHT22;19493;48.042;7.584;2024-03-02T12:30:17;22.50;40.30
26505;DHT22;19493;48.042;7.584;2024-03-02T12:32:44;23.60;39.60
26505;DHT22;19493;48.042;7.584;2024-03-02T12:35:10;24.10;38.50
26505;DHT22;19493;48.042;7.584;2024-03-02T12:37:44;23.70;39.30
26505;DHT22;19493;48.042;7.584;2024-03-02T12:40:14;24.50;38.90
26505;DHT22;19493;48.042;7.584;2024-03-02T12:42:40;26.50;36.00
26505;DHT22;19493;48.042;7.584;2024-03-02T12:45:09;26.20;35.90
26505;DHT22;19493;48.042;7.584;2024-03-02T12:47:36;26.50;35.40
26505;DHT22;19493;48.042;7.584;2024-03-02T12:50:03;25.10;35.80
26505;DHT22;19493;48.042;7.584;2024-03-02T12:52:29;23.80;37.40
26505;DHT22;19493;48.042;7.584;2024-03-02T12:54:54;23.30;38.30
26505;DHT22;19493;48.042;7.584;2024-03-02T12:57:28;22.70;39.50
26505;DHT22;19493;48.042;7.584;2024-03-02T12:59:58;24.10;38.70
26505;DHT22;19493;48.042;7.584;2024-03-02T13:02:30;26.30;36.50
26505;DHT22;19493;48.042;7.584;2024-03-02T13:04:57;26.90;35.20
26505;DHT22;19493;48.042;7.584;2024-03-02T13:07:26;26.90;35.10
26505;DHT22;19493;48.042;7.584;2024-03-02T13:09:56;26.80;35.00
26505;DHT22;19493;48.042;7.584;2024-03-02T13:12:22;27.80;34.50
26505;DHT22;19493;48.042;7.584;2024-03-02T13:14:51;26.40;33.70
26505;DHT22;19493;48.042;7.584;2024-03-02T13:17:17;24.30;34.90
26505;DHT22;19493;48.042;7.584;2024-03-02T13:19:58;21.90;39.00
26505;DHT22;19493;48.042;7.584;2024-03-02T13:22:27;20.50;41.10
26505;DHT22;19493;48.042;7.584;2024-03-02T13:24:53;19.50;43.50
26505;DHT22;19493;48.042;7.584;2024-03-02T13:27:20;19.10;45.20
26505;DHT22;19493;48.042;7.584;2024-03-02T13:29:46;18.50;46.10
26505;DHT22;19493;48.042;7.584;2024-03-02T13:32:15;18.30;46.80
26505;DHT22;19493;48.042;7.584;2024-03-02T13:34:41;18.20;47.00
26505;DHT22;19493;48.042;7.584;2024-03-02T13:37:07;18.00;47.50
26505;DHT22;19493;48.042;7.584;2024-03-02T13:39:33;18.00;47.50
26505;DHT22;19493;48.042;7.584;2024-03-02T13:42:13;18.10;48.20
26505;DHT22;19493;48.042;7.584;2024-03-02T13:44:40;18.10;47.30
26505;DHT22;19493;48.042;7.584;2024-03-02T13:47:05;18.10;47.50
26505;DHT22;19493;48.042;7.584;2024-03-02T13:49:34;18.20;47.80
26505;DHT22;19493;48.042;7.584;2024-03-02T13:52:08;18.20;47.20
26505;DHT22;19493;48.042;7.584;2024-03-02T13:54:39;18.40;47.60
26505;DHT22;19493;48.042;7.584;2024-03-02T13:57:05;18.30;47.30
26505;DHT22;19493;48.042;7.584;2024-03-02T13:59:31;18.10;47.50
26505;DHT22;19493;48.042;7.584;2024-03-02T14:01:56;17.80;48.00
26505;DHT22;19493;48.042;7.584;2024-03-02T14:04:22;17.50;48.50
26505;DHT22;19493;48.042;7.584;2024-03-02T14:06:48;17.30;49.00
26505;DHT22;19493;48.042;7.584;2024-03-02T14:09:14;17.10;49.60
26505;DHT22;19493;48.042;7.584;2024-03-02T14:11:40;17.00;50.40
26505;DHT22;19493;48.042;7.584;2024-03-02T14:14:06;16.90;50.30
26505;DHT22;19493;48.042;7.584;2024-03-02T14:16:31;16.80;50.80
26505;DHT22;19493;48.042;7.584;2024-03-02T14:18:57;16.70;50.60
26505;DHT22;19493;48.042;7.584;2024-03-02T14:21:24;16.60;50.60
26505;DHT22;19493;48.042;7.584;2024-03-02T14:23:50;16.50;51.00
26505;DHT22;19493;48.042;7.584;2024-03-02T14:26:15;16.50;51.00
26505;DHT22;19493;48.042;7.584;2024-03-02T14:28:41;16.30;51.00
26505;DHT22;19493;48.042;7.584;2024-03-02T14:31:07;16.20;51.30
26505;DHT22;19493;48.042;7.584;2024-03-02T14:33:32;16.10;51.80
26505;DHT22;19493;48.042;7.584;2024-03-02T14:35:58;16.00;51.80
26505;DHT22;19493;48.042;7.584;2024-03-02T14:38:23;15.90;52.10
26505;DHT22;19493;48.042;7.584;2024-03-02T14:40:49;15.80;52.60
26505;DHT22;19493;48.042;7.584;2024-03-02T14:43:14;15.70;52.80
26505;DHT22;19493;48.042;7.584;2024-03-02T14:45:40;15.70;53.00
26505;DHT22;19493;48.042;7.584;2024-03-02T14:48:06;15.60;53.60
26505;DHT22;19493;48.042;7.584;2024-03-02T14:50:31;15.60;53.80
26505;DHT22;19493;48.042;7.584;2024-03-02T14:52:58;15.50;53.70
26505;DHT22;19493;48.042;7.584;2024-03-02T14:55:25;15.50;54.20
26505;DHT22;19493;48.042;7.584;2024-03-02T14:57:51;15.50;54.10
26505;DHT22;19493;48.042;7.584;2024-03-02T15:00:17;15.50;54.20
26505;DHT22;19493;48.042;7.584;2024-03-02T15:02:43;15.40;54.10
26505;DHT22;19493;48.042;7.584;2024-03-02T15:05:09;15.40;53.80
26505;DHT22;19493;48.042;7.584;2024-03-02T15:07:34;15.40;54.10
26505;DHT22;19493;48.042;7.584;2024-03-02T15:10:00;15.30;54.10
26505;DHT22;19493;48.042;7.584;2024-03-02T15:12:25;15.30;54.80
26505;DHT22;19493;48.042;7.584;2024-03-02T15:14:51;15.30;54.20
26505;DHT22;19493;48.042;7.584;2024-03-02T15:17:17;15.30;54.50
26505;DHT22;19493;48.042;7.584;2024-03-02T15:19:43;15.40;54.40
26505;DHT22;19493;48.042;7.584;2024-03-02T15:22:10;15.50;57.50
26505;DHT22;19493;48.042;7.584;2024-03-02T15:24:36;15.70;58.40
26505;DHT22;19493;48.042;7.584;2024-03-02T15:27:02;15.90;57.70
26505;DHT22;19493;48.042;7.584;2024-03-02T15:29:32;16.20;57.50
26505;DHT22;19493;48.042;7.584;2024-03-02T15:31:58;16.50;55.70
26505;DHT22;19493;48.042;7.584;2024-03-02T15:34:24;16.80;55.60
26505;DHT22;19493;48.042;7.584;2024-03-02T15:36:50;17.10;56.80
26505;DHT22;19493;48.042;7.584;2024-03-02T15:39:16;17.40;56.50
26505;DHT22;19493;48.042;7.584;2024-03-02T15:41:44;17.50;55.80
26505;DHT22;19493;48.042;7.584;2024-03-02T15:44:10;17.70;54.30
26505;DHT22;19493;48.042;7.584;2024-03-02T15:46:36;17.80;54.60
26505;DHT22;19493;48.042;7.584;2024-03-02T15:49:01;17.70;54.50
26505;DHT22;19493;48.042;7.584;2024-03-02T15:51:28;17.50;54.80